Arthur, West Virginia
Current Conditions -  °F | °C
As of 2:55 AM on Sunday 26 Oct 2014 (Local Time) from KW99 Reporting Station
Clear Clear  
Wind Chill: 16°   Ceiling: Unl
Heat Index: 16°   Visibility: 10mi
Dew Point:   Wind: 7mph
Humidity: 35%   Direction: 340°NNW
Pressure: 29.79"   Gusts: 20mph
Location:  38.9337°N, 79.1435°W
Report Text: KW99 260655Z AUTO 34006G17KT 10SM CLR 16/01 A2979 RMK AO2 T01610006
Loading
Personal Weather Stations






























Interactive Weather Map
Tropical Storm Tracking
New forecast layout! Learn more

10-Day Weather Forecast

Advertisements
Track Severe Weather on mobile